Impacts METAR Board INFO
IDs:

KDTW - Detroit Metro/Wayne, MI, US

Updated at: 2054 UTC 13 Dec 2017
Potential Impact None Slight Moderate High
Time13/08Z 13/09Z 13/10Z 13/11Z 13/12Z 13/13Z 13/14Z 13/15Z 13/16Z 13/17Z 13/18Z 13/19Z 13/20Z
VIS10 10 10 10 10 10 1.5 1.5 1 0.75 1 1.25 9
CIG40 45 45 45 42 35 25 25 20 20 15 25 14
CoverOVCOVCOVCOVCOVCOVCOVCOVCOVCOVCOVCOVCOVC
FltCatVFRVFRVFRVFRVFRVFRIFRIFRIFRLIFRIFRIFRMVFR
WX-------------SN-SN-SN BR-SN-SN-SN--
WDir260260230210220200190180190180170160130
WSpd8 5 6 6 6 8 7 7 9 10 9 7 10
WGst-- -- -- -- -- -- -- -- -- -- -- -- --
Raw hourly METARs
KDTW 130753Z 26008KT 10SM BKN040 OVC075 M09/M14 A2987 RMK AO2 SLP124 T10941144
KDTW 130853Z 26005KT 10SM FEW028 OVC045 M08/M14 A2986 RMK AO2 SLP121 T10831139 58001
KDTW 130953Z 23006KT 10SM FEW028 OVC045 M08/M14 A2986 RMK AO2 SLP120 T10831139
KDTW 131053Z 21006KT 10SM OVC045 M09/M14 A2985 RMK AO2 SLP121 T10941139
KDTW 131153Z 22006KT 10SM OVC042 M08/M13 A2984 RMK AO2 SLP114 T10781128 11078 21100 58008
KDTW 131253Z 20008KT 10SM BKN035 OVC055 M08/M12 A2983 RMK AO2 SLP110 T10781117
KDTW 131356Z 19007KT 1 1/2SM -SN BKN025 OVC035 M07/M11 A2980 RMK AO2 SFC VIS 2 P0000 T10721111
KDTW 131453Z 18007KT 1 1/2SM -SN BKN025 OVC035 M07/M10 A2978 RMK AO2 SFC VIS 2 SLP094 P0001 60001 T10671100 58020
KDTW 131553Z 19009KT 1SM R03R/3500V5500FT -SN BR OVC020 M07/M09 A2977 RMK AO2 SLP089 P0001 T10671089
KDTW 131704Z 18010KT 3/4SM R03R/4000V6000FT -SN OVC020 M06/M09 A2970 RMK AO2 SFC VIS 1 1/4 P0000 T10611089
KDTW 131757Z 17009KT 1SM R03R/4500VP6000FT -SN BKN015 OVC050 M06/M09 A2964 RMK AO2 SFC VIS 1 1/4 PRESFR P0000 T10611089
KDTW 131853Z 16007KT 1 1/4SM -SN SCT015 BKN025 OVC045 M06/M09 A2959 RMK AO2 TWR VIS 1 1/2 SLP028 P0001 T10561089
KDTW 132000Z 13010KT 9SM BKN014 BKN040 OVC060 M05/M08 A2952 RMK AO2 T10501083